Time;durP1;ratioP1;P1;durP2;ratioP2;P2;SDS_P1;SDS_P2;PMS_P1;PMS_P2;Temp;Humidity;BMP_temperature;BMP_pressure;BME280_temperature;BME280_humidity;BME280_pressure;Samples;Min_cycle;Max_cycle;Signal;HPM_P1;HPM_P2
2023/07/12 11:03:21;;;;;;;4.65;4.25;;;;;;;34.45;26.05;99630.16;1887051;76;26853;-59
2023/07/12 11:06:08;;;;;;;5.62;4.90;;;;;;;34.52;26.49;99610.08;1858114;77;25480;-59
2023/07/12 11:08:36;;;;;;;5.67;4.33;;;;;;;34.89;26.00;99625.58;1843354;77;27504;-60
2023/07/12 11:11:11;;;;;;;8.03;4.90;;;;;;;34.97;25.41;99628.89;1856698;77;25839;-60
2023/07/12 11:13:41;;;;;;;8.38;5.10;;;;;;;34.70;24.94;99635.70;1830627;77;25823;-60
2023/07/12 11:16:18;;;;;;;7.55;4.78;;;;;;;34.46;25.22;99614.08;1822583;77;26102;-60
2023/07/12 11:18:57;;;;;;;7.08;4.92;;;;;;;34.30;25.15;99611.20;1856861;77;25633;-60
2023/07/12 11:21:49;;;;;;;8.28;5.20;;;;;;;34.30;25.80;99621.03;1856744;77;27250;-60
2023/07/12 11:24:41;;;;;;;7.40;5.30;;;;;;;34.40;25.56;99609.17;1856859;77;25843;-60
2023/07/12 11:27:28;;;;;;;8.88;6.33;;;;;;;34.46;24.89;99617.65;1857948;77;25599;-60
2023/07/12 11:29:56;;;;;;;13.53;7.58;;;;;;;34.35;25.25;99597.23;1787483;80;25463;-61
2023/07/12 11:32:34;;;;;;;7.62;6.55;;;;;;;34.31;25.39;99598.09;1732419;80;25399;-61
2023/07/12 11:35:06;;;;;;;9.08;8.18;;;;;;;34.32;25.14;99591.84;1820372;78;27432;-61
2023/07/12 11:37:43;;;;;;;10.88;9.73;;;;;;;34.51;25.71;99588.87;1756537;80;25446;-61
2023/07/12 11:40:20;;;;;;;13.08;12.07;;;;;;;34.57;24.63;99598.15;1820449;78;25423;-60
2023/07/12 11:42:48;;;;;;;13.65;12.35;;;;;;;34.46;24.92;99586.77;1787933;80;25397;-60
2023/07/12 11:45:20;;;;;;;14.83;13.72;;;;;;;34.55;25.31;99587.28;1820418;78;25597;-60
2023/07/12 11:47:51;;;;;;;17.77;16.27;;;;;;;34.66;25.33;99580.38;1787990;80;27560;-59
2023/07/12 11:50:27;;;;;;;27.98;26.12;;;;;;;34.97;25.16;99596.59;1787832;80;25417;-60
2023/07/12 11:52:55;;;;;;;38.58;36.23;;;;;;;34.91;24.99;99585.16;1788016;80;25543;-60
2023/07/12 11:55:28;;;;;;;67.70;64.03;;;;;;;34.73;24.89;99587.63;1787960;80;25385;-60
2023/07/12 11:57:56;;;;;;;64.70;61.00;;;;;;;34.49;25.14;99578.78;1788033;80;25641;-62
2023/07/12 12:00:28;;;;;;;69.70;65.70;;;;;;;34.44;24.90;99585.09;1788221;80;27564;-59
2023/07/12 12:02:57;;;;;;;66.97;63.33;;;;;;;34.23;25.21;99578.08;1787780;80;25734;-61
2023/07/12 12:05:32;;;;;;;71.02;67.25;;;;;;;34.07;25.19;99570.17;1787966;80;25544;-60
2023/07/12 12:08:00;;;;;;;70.65;66.55;;;;;;;33.87;25.76;99570.94;1787985;80;25569;-59
2023/07/12 12:10:35;;;;;;;69.15;65.30;;;;;;;33.71;25.82;99568.01;1757436;80;25496;-60
2023/07/12 12:13:20;;;;;;;68.37;64.75;;;;;;;33.62;26.20;99564.67;1787726;80;27505;-59
2023/07/12 12:15:52;;;;;;;70.08;66.45;;;;;;;33.50;26.21;99563.72;1787311;80;25519;-61
2023/07/12 12:18:22;;;;;;;20.17;18.48;;;;;;;33.21;26.50;99561.72;1785577;80;25751;-60
2023/07/12 12:21:05;;;;;;;18.10;16.73;;;;;;;32.94;27.04;99559.30;1756763;80;25456;-61
2023/07/12 12:23:41;;;;;;;46.63;43.95;;;;;;;32.81;27.23;99560.84;1784896;80;25455;-60
2023/07/12 12:26:22;;;;;;;73.28;69.27;;;;;;;32.75;27.72;99569.14;1787402;80;27530;-60
2023/07/12 12:29:09;;;;;;;70.65;66.85;;;;;;;32.61;27.59;99558.06;1787346;80;25740;-60
2023/07/12 12:31:59;;;;;;;69.00;65.35;;;;;;;32.47;27.80;99564.36;1786227;80;25554;-60
2023/07/12 12:34:35;;;;;;;72.92;68.52;;;;;;;32.35;28.08;99572.54;1786615;80;25374;-60
2023/07/12 12:37:09;;;;;;;71.05;67.00;;;;;;;32.19;28.21;99581.34;1756775;80;25625;-62
2023/07/12 12:39:37;;;;;;;71.57;67.78;;;;;;;32.07;28.35;99588.71;1787370;80;26672;-60
2023/07/12 12:42:19;;;;;;;68.95;65.22;;;;;;;31.89;28.49;99585.38;1787545;80;25386;-60
2023/07/12 12:44:46;;;;;;;20.50;19.05;;;;;;;31.40;29.41;99591.42;1787386;80;25550;-60
2023/07/12 12:47:18;;;;;;;22.58;21.02;;;;;;;31.40;29.41;99591.42;1787337;80;25633;-59
2023/07/12 12:49:44;;;;;;;46.90;43.92;;;;;;;31.32;29.45;99596.41;1785790;80;25392;-62
2023/07/12 12:52:36;;;;;;;69.07;65.20;;;;;;;31.20;29.75;99599.53;1787303;80;27499;-61
2023/07/12 12:55:09;;;;;;;15.85;14.45;;;;;;;31.08;29.87;99594.27;1787328;80;25552;-59
2023/07/12 12:57:38;;;;;;;42.65;40.05;;;;;;;30.95;30.10;99590.87;1787414;80;25533;-60
2023/07/12 13:00:17;;;;;;;66.77;63.08;;;;;;;30.91;30.39;99591.77;1787493;80;25641;-61
2023/07/12 13:02:46;;;;;;;70.47;66.55;;;;;;;30.82;30.59;99590.98;1786651;80;25854;-61
2023/07/12 13:05:15;;;;;;;25.55;23.40;;;;;;;30.75;30.58;99592.10;1787555;80;27450;-60
2023/07/12 13:07:43;;;;;;;;;;;;;;;30.67;30.80;99579.06;1759157;80;25586;-60
2023/07/12 13:10:22;;;;;;;73.87;69.77;;;;;;;30.69;31.04;99582.16;1819784;78;25458;-62
2023/07/12 13:12:50;;;;;;;60.83;57.50;;;;;;;30.67;31.16;99580.45;1787369;80;25637;-61
2023/07/12 13:15:21;;;;;;;72.05;68.10;;;;;;;30.57;31.15;99573.33;1819694;78;25452;-60
2023/07/12 13:17:50;;;;;;;73.15;68.87;;;;;;;30.57;31.45;99583.72;1787382;80;28033;-61
2023/07/12 13:20:20;;;;;;;71.30;67.10;;;;;;;30.59;31.49;99586.19;1819558;78;25776;-61
2023/07/12 13:22:48;;;;;;;76.42;72.05;;;;;;;30.59;31.61;99596.58;1787300;80;25557;-61
2023/07/12 13:25:16;;;;;;;69.65;65.65;;;;;;;30.51;31.46;99586.33;1819548;78;25391;-62
2023/07/12 13:27:53;;;;;;;73.10;68.85;;;;;;;30.45;31.66;99587.58;1787387;80;25463;-60
2023/07/12 13:30:23;;;;;;;74.87;70.55;;;;;;;30.38;31.67;99582.30;1819678;78;27410;-59
2023/07/12 13:32:49;;;;;;;74.05;69.82;;;;;;;30.32;31.70;99583.48;1787242;80;25622;-60
2023/07/12 13:35:21;;;;;;;71.15;67.12;;;;;;;30.25;31.84;99588.59;1787350;80;25589;-61
2023/07/12 13:37:49;;;;;;;71.92;68.02;;;;;;;30.21;31.96;99583.80;1787298;80;25386;-61
2023/07/12 13:40:19;;;;;;;73.97;69.97;;;;;;;30.19;32.08;99580.07;1787623;80;25479;-61
2023/07/12 13:42:46;;;;;;;75.30;71.12;;;;;;;30.17;32.17;99581.13;1787299;80;27536;-61
2023/07/12 13:45:15;;;;;;;73.57;69.42;;;;;;;30.17;32.21;99579.14;1787248;80;25571;-61
2023/07/12 13:47:43;;;;;;;75.10;70.37;;;;;;;30.13;32.38;99576.33;1787269;80;25594;-61
2023/07/12 13:50:16;;;;;;;74.65;70.62;;;;;;;30.08;32.55;99578.33;1787288;80;25481;-60
2023/07/12 13:52:43;;;;;;;76.37;71.92;;;;;;;30.05;32.78;99581.41;1787400;80;25432;-61
2023/07/12 13:55:16;;;;;;;74.60;70.60;;;;;;;30.00;32.80;99575.05;1787332;80;29649;-60
2023/07/12 13:57:42;;;;;;;76.35;71.57;;;;;;;29.96;33.18;99585.58;1787237;80;25747;-61
2023/07/12 14:00:18;;;;;;;74.92;70.47;;;;;;;29.87;33.41;99579.36;1787328;80;25664;-62
2023/07/12 14:02:47;;;;;;;59.40;56.02;;;;;;;29.80;33.91;99581.80;1789550;80;25814;-62
2023/07/12 14:05:13;;;;;;;74.58;70.40;;;;;;;29.68;34.26;99579.88;1792955;80;25614;-60
2023/07/12 14:07:45;;;;;;;76.53;71.92;;;;;;;29.59;35.05;99580.62;1793242;80;27449;-60
2023/07/12 14:10:18;;;;;;;74.62;70.12;;;;;;;29.52;35.34;99580.10;1793129;80;25456;-59
2023/07/12 14:12:46;;;;;;;76.22;71.95;;;;;;;29.45;36.21;99580.38;1792678;80;25400;-60
2023/07/12 14:15:20;;;;;;;75.92;71.12;;;;;;;29.40;37.95;99583.90;1756972;80;25662;-60
2023/07/12 14:17:47;;;;;;;28.35;25.80;;;;;;;29.35;39.08;99582.33;1793101;80;25445;-60
2023/07/12 14:20:13;;;;;;;16.10;14.28;;;;;;;29.29;39.76;99584.17;1793172;80;27469;-61
2023/07/12 14:22:39;;;;;;;74.22;70.12;;;;;;;29.23;40.37;99586.74;1793021;80;25799;-59
2023/07/12 14:25:10;;;;;;;77.30;72.82;;;;;;;29.15;40.53;99589.59;1793133;80;25536;-62
2023/07/12 14:27:37;;;;;;;71.33;67.12;;;;;;;29.10;40.83;99593.76;1793172;80;25569;-59
2023/07/12 14:30:05;;;;;;;74.35;70.12;;;;;;;29.04;40.28;99602.52;1793185;80;25541;-61
2023/07/12 14:32:39;;;;;;;73.25;68.95;;;;;;;28.87;40.85;99599.91;1793287;80;27468;-60
2023/07/12 14:35:13;;;;;;;72.95;68.50;;;;;;;28.79;40.58;99600.62;1792962;80;25522;-60
2023/07/12 14:37:39;;;;;;;75.97;71.55;;;;;;;28.65;40.39;99604.05;1793232;80;25501;-61
2023/07/12 14:40:10;;;;;;;77.78;73.40;;;;;;;28.52;40.82;99597.75;1793092;80;25437;-60
2023/07/12 14:42:36;;;;;;;75.25;71.05;;;;;;;28.40;40.92;99604.89;1765297;80;25394;-59
2023/07/12 14:45:04;;;;;;;37.93;35.48;;;;;;;28.28;41.18;99602.30;1793274;80;27490;-60
2023/07/12 14:47:30;;;;;;;77.70;73.33;;;;;;;28.18;41.56;99602.63;1793095;80;25605;-59
2023/07/12 14:49:56;;;;;;;76.17;71.90;;;;;;;28.07;41.42;99597.42;1793090;80;25384;-58
2023/07/12 14:52:27;;;;;;;78.47;73.97;;;;;;;27.97;41.97;99595.77;1793114;80;25715;-61
2023/07/12 14:55:00;;;;;;;41.15;38.48;;;;;;;27.84;42.33;99595.72;1793195;80;25557;-60
2023/07/12 14:57:28;;;;;;;75.70;71.25;;;;;;;27.72;43.04;99593.90;1793130;80;28332;-58
2023/07/12 14:59:55;;;;;;;70.95;66.80;;;;;;;27.55;43.48;99582.73;1793194;80;35115;-59
2023/07/12 15:02:38;;;;;;;63.42;59.40;;;;;;;27.42;44.14;99577.77;1792328;80;25606;-59
2023/07/12 15:05:09;;;;;;;21.17;19.57;;;;;;;27.25;44.94;99577.80;1787257;80;25570;-60
2023/07/12 15:07:40;;;;;;;44.15;41.50;;;;;;;27.06;45.53;99582.92;1787368;80;25404;-60
2023/07/12 15:10:16;;;;;;;24.82;22.52;;;;;;;26.87;46.08;99579.06;1787172;80;27551;-59
2023/07/12 15:13:01;;;;;;;31.00;28.70;;;;;;;26.65;47.43;99585.97;1787223;80;25531;-59
2023/07/12 15:15:28;;;;;;;29.92;27.67;;;;;;;26.42;47.73;99584.77;1755721;80;25397;-60
2023/07/12 15:18:17;;;;;;;35.50;32.75;;;;;;;26.28;48.98;99596.98;1787247;80;25576;-60
2023/07/12 15:20:51;;;;;;;48.25;44.63;;;;;;;26.14;50.25;99607.05;1786777;80;25617;-61
2023/07/12 15:23:29;;;;;;;34.15;31.52;;;;;;;25.97;50.90;99614.56;1787262;80;27383;-61
2023/07/12 15:25:53;;;;;;;29.23;26.37;;;;;;;25.81;52.05;99610.52;1786669;80;25929;-61
2023/07/12 15:28:20;;;;;;;62.08;57.38;;;;;;;25.70;52.72;99623.20;1787257;80;25405;-61
2023/07/12 15:30:48;;;;;;;28.17;25.82;;;;;;;25.62;53.43;99623.78;1787202;80;25507;-60
2023/07/12 15:33:19;;;;;;;86.20;80.53;;;;;;;25.52;54.69;99606.98;1787283;80;25414;-59
2023/07/12 15:35:48;;;;;;;27.10;24.07;;;;;;;25.45;54.99;99609.11;1787300;80;27547;-60
2023/07/12 15:38:15;;;;;;;23.00;20.75;;;;;;;25.34;55.76;99615.64;1756484;80;25655;-60
2023/07/12 15:41:01;;;;;;;81.08;75.50;;;;;;;25.29;56.62;99618.91;1819545;78;25407;-60
2023/07/12 15:43:38;;;;;;;84.70;79.55;;;;;;;25.27;57.46;99617.18;1786198;80;25593;-60
2023/07/12 15:46:09;;;;;;;85.00;79.42;;;;;;;25.23;57.62;99614.27;1787264;80;25626;-61
2023/07/12 15:48:35;;;;;;;87.72;81.85;;;;;;;25.27;58.22;99612.26;1787493;78;28132;-60
2023/07/12 15:51:22;;;;;;;87.47;81.30;;;;;;;25.27;58.44;99608.11;1787332;80;25597;-58
2023/07/12 15:53:52;;;;;;;86.17;80.53;;;;;;;25.27;58.58;99597.81;1787435;80;25393;-60
2023/07/12 15:56:24;;;;;;;85.85;80.40;;;;;;;25.25;59.17;99600.20;1787385;80;25823;-60
2023/07/12 15:58:50;;;;;;;88.12;82.75;;;;;;;25.24;59.04;99593.09;1787222;80;25606;-62
2023/07/12 16:01:27;;;;;;;83.95;78.60;;;;;;;25.23;59.46;99597.66;1787457;80;27519;-60
2023/07/12 16:03:55;;;;;;;86.47;80.83;;;;;;;25.23;59.92;99594.28;1723755;81;26909;-58
2023/07/12 16:06:22;;;;;;;87.55;82.33;;;;;;;25.24;59.88;99606.16;1761882;81;25628;-58
2023/07/12 16:08:51;;;;;;;85.40;79.90;;;;;;;25.26;59.97;99608.69;1761869;81;25599;-58
2023/07/12 16:11:29;;;;;;;85.90;80.07;;;;;;;25.28;60.45;99609.65;1762202;81;25559;-57
2023/07/12 16:13:56;;;;;;;87.80;81.30;;;;;;;25.27;60.55;99602.57;1762258;81;27474;-61
2023/07/12 16:16:25;;;;;;;85.57;79.37;;;;;;;25.28;60.53;99601.34;1761820;81;25254;-60
2023/07/12 16:18:53;;;;;;;86.95;81.47;;;;;;;25.30;60.84;99601.11;1761901;81;25454;-60
2023/07/12 16:21:24;;;;;;;77.67;72.40;;;;;;;25.34;61.08;99609.34;1769804;81;26047;-61
2023/07/12 16:23:53;;;;;;;25.08;22.67;;;;;;;25.36;61.00;99617.98;1761932;81;25467;-62
2023/07/12 17:05:33;;;;;;;20.40;11.83;;;;;;;25.74;60.10;99606.50;1835703;77;27425;-64
2023/07/12 17:07:59;;;;;;;17.82;12.25;;;;;;;25.77;60.06;99603.50;1820782;78;25449;-61
2023/07/12 17:10:25;;;;;;;16.62;12.33;;;;;;;25.81;59.94;99599.45;1821170;78;25402;-67
2023/07/12 17:12:51;;;;;;;19.27;14.35;;;;;;;25.86;59.79;99607.83;1821076;78;25465;-63
2023/07/12 17:15:19;;;;;;;19.92;13.98;;;;;;;25.88;59.79;99608.97;1780840;80;25526;-67
2023/07/12 17:17:51;;;;;;;16.40;14.07;;;;;;;25.90;58.88;99601.62;1808746;79;27466;-65
2023/07/12 17:20:14;;;;;;;16.42;14.87;;;;;;;25.88;57.21;99594.32;1831929;78;25406;-65
2023/07/12 17:22:40;;;;;;;19.10;16.85;;;;;;;25.84;56.43;99595.02;1832451;78;25526;-65
2023/07/12 17:25:12;;;;;;;19.90;18.20;;;;;;;25.81;55.75;99593.91;1832425;78;26111;-66
2023/07/12 17:27:38;;;;;;;35.48;32.83;;;;;;;25.78;55.36;99590.60;1832464;78;25445;-70
2023/07/12 17:30:11;;;;;;;79.07;74.27;;;;;;;25.75;55.03;99589.30;1809183;78;27473;-65
2023/07/12 17:32:35;;;;;;;80.75;75.80;;;;;;;25.72;54.85;99589.55;1831555;78;25614;-68
2023/07/12 17:35:03;;;;;;;82.88;78.05;;;;;;;25.70;54.84;99598.28;1832333;78;25352;-64
2023/07/12 17:37:31;;;;;;;86.55;81.12;;;;;;;25.67;54.83;99597.75;1832294;78;27670;-62
2023/07/12 17:39:58;;;;;;;86.82;81.32;;;;;;;25.67;55.00;99607.44;1808921;78;25611;-62
2023/07/12 17:42:25;;;;;;;88.55;83.00;;;;;;;25.65;54.36;99614.63;1832385;78;28188;-64
2023/07/12 17:44:51;;;;;;;82.92;77.90;;;;;;;25.63;54.33;99616.44;1832363;78;25597;-64
2023/07/12 17:47:20;;;;;;;78.78;73.72;;;;;;;25.60;54.18;99617.29;1832345;78;25399;-63
2023/07/12 17:49:49;;;;;;;98.25;91.25;;;;;;;25.58;53.98;99616.95;1809243;78;25377;-65
2023/07/12 17:52:18;;;;;;;84.58;79.55;;;;;;;25.54;53.88;99623.94;1832541;78;25578;-65
2023/07/12 17:54:47;;;;;;;81.90;76.50;;;;;;;25.52;53.84;99626.95;1832370;78;28086;-65
2023/07/12 17:57:15;;;;;;;83.72;78.78;;;;;;;25.47;53.81;99626.06;1832424;78;25588;-66
2023/07/12 17:59:44;;;;;;;83.85;78.83;;;;;;;25.45;53.86;99636.18;1832397;78;25569;-66
2023/07/12 18:02:23;;;;;;;82.70;77.17;;;;;;;25.42;53.78;99634.29;1832456;78;25676;-66
2023/07/12 18:04:49;;;;;;;85.25;80.28;;;;;;;25.39;53.82;99632.37;1832439;78;25709;-64
2023/07/12 18:07:22;;;;;;;82.70;77.80;;;;;;;25.36;53.81;99623.52;1832358;78;27578;-64
2023/07/12 18:09:52;;;;;;;83.20;78.28;;;;;;;25.31;53.89;99612.34;1831621;78;25585;-64
2023/07/12 18:12:22;;;;;;;85.53;80.55;;;;;;;25.29;54.23;99620.30;1831971;78;25556;-64
2023/07/12 18:14:50;;;;;;;85.42;80.17;;;;;;;25.25;54.62;99620.15;1831602;78;25614;-63
2023/07/12 18:17:20;;;;;;;82.88;77.70;;;;;;;25.22;54.57;99628.72;1832521;78;25367;-63
2023/07/12 18:19:52;;;;;;;82.53;77.42;;;;;;;25.15;54.60;99648.23;1832378;78;28053;-63
2023/07/12 18:22:20;;;;;;;84.45;78.95;;;;;;;25.08;54.73;99662.97;1832274;78;25580;-63
2023/07/12 18:24:48;;;;;;;83.73;78.80;;;;;;;24.99;54.83;99666.88;1832587;78;25355;-64
2023/07/12 18:27:18;;;;;;;84.75;79.32;;;;;;;24.94;54.87;99672.31;1832557;78;25544;-65
2023/07/12 18:29:47;;;;;;;82.30;77.17;;;;;;;24.88;55.13;99672.61;1832210;78;25601;-64
2023/07/12 18:32:21;;;;;;;81.80;76.60;;;;;;;24.82;55.26;99666.59;1832596;78;27472;-63
2023/07/12 18:34:52;;;;;;;82.00;76.90;;;;;;;24.77;55.45;99672.00;1832307;78;25422;-64
2023/07/12 18:37:21;;;;;;;82.78;77.55;;;;;;;24.71;55.72;99662.03;1832340;78;25367;-65
2023/07/12 18:39:51;;;;;;;;;;;;;;;24.70;55.53;99677.66;1835034;78;25522;-65
2023/07/12 18:42:25;;;;;;;40.58;37.65;;;;;;;24.69;55.86;99680.23;1832429;78;25505;-64
2023/07/12 18:44:53;;;;;;;81.72;76.82;;;;;;;24.62;55.61;99678.39;1832377;78;27505;-64
2023/07/12 18:47:21;;;;;;;85.70;80.20;;;;;;;24.58;55.68;99683.95;1832256;78;25872;-64
2023/07/12 18:49:51;;;;;;;86.33;80.77;;;;;;;24.54;55.97;99671.38;1832686;77;25630;-63
2023/07/12 18:52:20;;;;;;;83.58;78.45;;;;;;;24.49;56.26;99675.39;1832370;78;26126;-63
2023/07/12 18:54:51;;;;;;;86.10;80.45;;;;;;;24.47;56.42;99670.09;1809147;78;25403;-63
2023/07/12 18:57:19;;;;;;;83.72;78.50;;;;;;;24.45;56.46;99672.50;1832369;78;28031;-64
2023/07/12 18:59:49;;;;;;;86.67;80.97;;;;;;;24.43;57.52;99665.42;1832668;78;25414;-63
2023/07/12 19:02:20;;;;;;;91.45;85.42;;;;;;;24.41;58.19;99665.03;1832516;78;25561;-65
2023/07/12 19:04:50;;;;;;;91.32;85.45;;;;;;;24.38;58.36;99660.95;1840600;77;26093;-64
2023/07/12 19:07:26;;;;;;;93.82;87.42;;;;;;;24.37;59.47;99669.85;1852887;77;25547;-64
2023/07/12 19:09:53;;;;;;;84.90;79.42;;;;;;;24.35;60.43;99660.43;1852397;77;27474;-65
2023/07/12 19:12:23;;;;;;;86.55;81.00;;;;;;;24.27;60.72;99650.07;1852631;77;25675;-64
2023/07/12 19:14:53;;;;;;;88.22;82.67;;;;;;;24.21;60.95;99648.39;1821694;77;25555;-64
2023/07/12 19:17:20;;;;;;;88.90;83.20;;;;;;;24.14;61.48;99664.27;1852428;77;25524;-64
2023/07/12 19:19:48;;;;;;;90.15;84.37;;;;;;;24.09;62.38;99665.52;1852780;77;25559;-64
2023/07/12 19:22:19;;;;;;;87.92;82.08;;;;;;;24.02;62.46;99671.15;1852709;77;27441;-64
2023/07/12 19:24:47;;;;;;;85.90;80.55;;;;;;;23.94;63.25;99666.91;1821984;77;25928;-64
2023/07/12 19:27:21;;;;;;;87.55;81.97;;;;;;;23.82;63.27;99659.39;1822098;77;25390;-64
2023/07/12 19:29:49;;;;;;;86.95;81.53;;;;;;;23.73;63.20;99655.53;1852890;77;25615;-64
2023/07/12 19:32:20;;;;;;;84.45;79.15;;;;;;;23.64;64.54;99651.30;1852932;77;25537;-64
2023/07/12 19:34:50;;;;;;;87.95;81.92;;;;;;;23.52;64.32;99649.09;1852141;77;27530;-65
2023/07/12 19:37:19;;;;;;;85.85;80.17;;;;;;;23.43;64.60;99646.05;1821752;77;25645;-64
2023/07/12 19:39:47;;;;;;;83.92;78.72;;;;;;;23.36;65.59;99645.54;1853086;77;27914;-63
2023/07/12 19:42:22;;;;;;;86.78;81.25;;;;;;;23.27;65.52;99652.13;1852865;77;25507;-64
2023/07/12 19:44:49;;;;;;;87.00;81.60;;;;;;;23.17;65.14;99656.56;1852876;77;25405;-64
2023/07/12 19:47:18;;;;;;;28.15;25.37;;;;;;;23.08;65.36;99658.43;1852962;77;27431;-63
2023/07/12 19:49:44;;;;;;;24.57;22.15;;;;;;;23.03;65.99;99664.97;1852888;77;25579;-64
2023/07/12 19:52:14;;;;;;;23.50;20.52;;;;;;;22.94;66.28;99666.22;1852796;77;25590;-63
2023/07/12 19:54:41;;;;;;;20.92;19.07;;;;;;;22.85;66.33;99668.68;1852825;77;25516;-64
2023/07/12 19:57:19;;;;;;;36.05;33.35;;;;;;;22.79;66.58;99673.66;1822057;77;25532;-64
2023/07/12 19:59:46;;;;;;;34.13;31.30;;;;;;;22.72;67.08;99678.64;1853079;77;27427;-64
2023/07/12 20:02:18;;;;;;;81.63;76.47;;;;;;;22.63;67.30;99679.11;1852717;77;25374;-64
2023/07/12 20:04:45;;;;;;;42.48;39.40;;;;;;;22.62;67.62;99696.82;1852672;77;25412;-63
2023/07/12 20:07:11;;;;;;;69.00;64.55;;;;;;;22.55;67.51;99703.77;1852817;77;25566;-64
2023/07/12 20:09:38;;;;;;;82.80;77.55;;;;;;;22.49;67.71;99698.48;1822118;77;25791;-64
2023/07/12 20:12:07;;;;;;;71.37;66.90;;;;;;;22.43;68.66;99691.86;1852919;77;27460;-63
2023/07/12 20:14:35;;;;;;;73.22;68.20;;;;;;;22.34;68.47;99704.70;1852878;77;25233;-62
2023/07/12 20:17:05;;;;;;;59.23;55.03;;;;;;;22.24;68.84;99699.42;1852983;77;25531;-63
2023/07/12 20:19:33;;;;;;;44.58;41.15;;;;;;;22.17;69.22;99699.47;1852746;77;25436;-62
2023/07/12 20:22:01;;;;;;;25.20;22.90;;;;;;;22.07;69.58;99698.94;1852823;77;25376;-62
2023/07/12 20:24:28;;;;;;;38.00;35.20;;;;;;;21.96;69.90;99700.34;1853018;77;27472;-63
2023/07/12 20:26:54;;;;;;;24.55;22.48;;;;;;;21.86;69.54;99703.94;1852733;77;25637;-63
2023/07/12 20:29:21;;;;;;;22.50;20.40;;;;;;;21.79;69.87;99715.75;1852766;77;25595;-64
2023/07/12 20:31:47;;;;;;;30.17;27.80;;;;;;;21.75;70.60;99720.50;1852742;77;25578;-63
2023/07/12 20:34:13;;;;;;;25.92;23.65;;;;;;;21.69;70.48;99728.39;1852878;77;25430;-63
2023/07/12 20:36:42;;;;;;;84.62;79.12;;;;;;;21.67;71.06;99738.22;1852760;77;27556;-63
2023/07/12 20:39:08;;;;;;;22.58;20.43;;;;;;;21.60;70.89;99736.27;1852506;77;25517;-62
2023/07/12 20:41:34;;;;;;;29.32;26.65;;;;;;;21.56;71.41;99735.50;1852815;77;25522;-63
2023/07/12 20:44:01;;;;;;;35.60;32.60;;;;;;;21.52;72.04;99744.34;1821787;77;25668;-62
2023/07/12 20:46:27;;;;;;;75.92;70.78;;;;;;;21.48;72.50;99747.70;1852821;77;25709;-63
2023/07/12 20:48:54;;;;;;;85.92;80.22;;;;;;;21.41;72.61;99758.09;1852798;77;27476;-63
2023/07/12 20:51:23;;;;;;;91.67;85.75;;;;;;;21.40;73.02;99764.77;1852701;77;25423;-63
2023/07/12 20:53:52;;;;;;;89.42;83.30;;;;;;;21.36;72.91;99757.13;1853078;77;25591;-62
2023/07/12 20:56:19;;;;;;;86.05;80.53;;;;;;;21.36;73.63;99753.00;1852786;77;25583;-63
2023/07/12 20:58:51;;;;;;;87.15;81.50;;;;;;;21.31;73.69;99743.17;1852805;77;25538;-63
2023/07/12 21:01:21;;;;;;;84.47;78.83;;;;;;;21.29;73.78;99746.14;1852683;77;27446;-62
2023/07/12 21:03:50;;;;;;;72.62;67.60;;;;;;;21.24;73.40;99747.31;1852723;77;25633;-61
2023/07/12 21:06:18;;;;;;;35.70;32.50;;;;;;;21.16;73.38;99749.27;1788519;78;25373;-64
2023/07/12 21:08:45;;;;;;;23.12;20.75;;;;;;;21.14;73.73;99760.48;1809035;79;25557;-63
2023/07/12 21:11:15;;;;;;;25.48;23.12;;;;;;;21.12;73.80;99758.72;1809092;79;25373;-64
2023/07/12 21:13:43;;;;;;;;;;;;;;;21.11;73.87;99767.54;1780151;79;27171;-64
2023/07/12 21:16:14;;;;;;;25.68;23.32;;;;;;;21.12;74.36;99769.72;1808944;79;25533;-72
2023/07/12 21:18:42;;;;;;;23.95;21.42;;;;;;;21.13;74.13;99769.90;1809055;79;25385;-66
2023/07/12 21:21:09;;;;;;;27.25;24.70;;;;;;;21.13;74.52;99765.77;1808990;79;25512;-66
2023/07/12 21:23:39;;;;;;;79.47;73.92;;;;;;;21.10;74.21;99774.23;1809034;79;25587;-64
2023/07/12 21:26:06;;;;;;;94.62;88.52;;;;;;;21.08;74.13;99771.87;1777575;79;28009;-70
2023/07/12 21:28:34;;;;;;;85.28;79.58;;;;;;;21.04;74.30;99773.05;1808498;79;25531;-72
2023/07/12 21:31:02;;;;;;;85.65;80.03;;;;;;;21.02;74.12;99779.53;1807637;79;25673;-72
2023/07/12 21:33:29;;;;;;;69.10;64.20;;;;;;;20.98;74.06;99782.88;1807872;79;26172;-72
2023/07/12 21:35:57;;;;;;;63.25;58.68;;;;;;;20.94;74.32;99788.95;1809079;79;25586;-70
2023/07/12 21:38:29;;;;;;;48.48;44.65;;;;;;;20.93;74.73;99795.64;1778291;79;27569;-70
2023/07/12 21:41:07;;;;;;;84.45;78.75;;;;;;;20.89;74.94;99793.67;1809004;79;25538;-73
2023/07/12 21:43:34;;;;;;;89.60;83.80;;;;;;;20.88;74.87;99794.83;1809035;79;25519;-73
2023/07/12 21:46:01;;;;;;;93.82;87.55;;;;;;;20.85;75.11;99800.33;1808956;79;25994;-67
2023/07/12 21:48:28;;;;;;;95.40;89.22;;;;;;;20.82;75.11;99800.54;1809036;79;25523;-66
2023/07/12 21:50:57;;;;;;;96.80;90.28;;;;;;;20.80;75.27;99807.59;1809024;79;27468;-68
2023/07/12 21:53:24;;;;;;;92.57;86.40;;;;;;;20.78;75.75;99814.06;1808986;79;25392;-67
2023/07/12 21:55:51;;;;;;;71.33;66.02;;;;;;;20.74;75.59;99809.94;1809068;79;25353;-77
2023/07/12 21:58:18;;;;;;;92.08;85.90;;;;;;;20.71;75.78;99793.63;1809017;79;25574;-66
2023/07/12 22:00:45;;;;;;;94.70;88.40;;;;;;;20.69;75.87;99789.72;1808976;79;25623;-66
2023/07/12 22:03:13;;;;;;;85.85;79.87;;;;;;;20.67;75.97;99798.91;1808940;79;27437;-66
2023/07/12 22:05:45;;;;;;;96.17;89.75;;;;;;;20.65;75.82;99804.02;1789210;77;25465;-66
2023/07/12 22:08:14;;;;;;;94.22;87.70;;;;;;;20.62;75.91;99804.76;1843845;77;25505;-66
2023/07/12 22:10:41;;;;;;;90.90;84.90;;;;;;;20.58;75.86;99803.37;1843753;77;26059;-65
2023/07/12 22:13:08;;;;;;;63.48;58.78;;;;;;;20.56;76.16;99803.59;1843854;77;25599;-65
2023/07/12 22:15:35;;;;;;;78.55;72.60;;;;;;;20.53;76.25;99810.63;1843495;77;27477;-62
2023/07/12 22:18:04;;;;;;;97.35;90.67;;;;;;;20.48;76.98;99814.56;1842608;77;25677;-63
2023/07/12 22:20:30;;;;;;;102.00;94.72;;;;;;;20.44;76.73;99823.36;1843786;77;25589;-63
2023/07/12 22:22:57;;;;;;;34.43;30.95;;;;;;;20.39;77.49;99831.20;1843726;77;25509;-63
2023/07/12 22:25:24;;;;;;;50.23;45.73;;;;;;;20.36;78.38;99827.25;1843841;77;25567;-63
2023/07/12 22:27:51;;;;;;;99.65;92.55;;;;;;;20.26;78.29;99822.50;1843787;77;27447;-63
2023/07/12 22:30:26;;;;;;;99.62;92.65;;;;;;;20.22;78.96;99825.23;1843685;77;25563;-63
2023/07/12 22:32:52;;;;;;;97.80;91.20;;;;;;;20.20;78.92;99825.44;1843774;77;25437;-63
2023/07/12 22:35:18;;;;;;;99.13;92.42;;;;;;;20.18;79.16;99825.05;1843716;77;25533;-63
2023/07/12 22:37:45;;;;;;;96.42;89.83;;;;;;;20.17;79.37;99828.95;1843812;77;25512;-63
2023/07/12 22:40:13;;;;;;;97.82;91.02;;;;;;;20.15;79.03;99823.84;1843725;77;27455;-63
2023/07/12 22:42:39;;;;;;;100.67;93.65;;;;;;;20.13;79.08;99824.22;1843719;77;25444;-63
2023/07/12 22:45:08;;;;;;;96.28;89.65;;;;;;;20.12;79.08;99829.50;1843733;77;25354;-63
2023/07/12 22:47:34;;;;;;;96.70;90.07;;;;;;;20.10;79.08;99835.97;1811312;77;25657;-63
2023/07/12 22:50:00;;;;;;;96.95;90.05;;;;;;;20.10;79.08;99835.97;1843772;77;25395;-64
2023/07/12 22:52:27;;;;;;;97.00;90.28;;;;;;;20.08;79.09;99831.45;1843784;77;28142;-64
2023/07/12 22:54:53;;;;;;;98.72;91.70;;;;;;;20.07;79.14;99835.95;1843648;77;25885;-64
2023/07/12 22:57:19;;;;;;;97.22;90.38;;;;;;;20.04;79.52;99838.89;1843725;77;25541;-64
2023/07/12 22:59:46;;;;;;;98.78;92.02;;;;;;;19.99;79.47;99842.57;1843700;77;25645;-64
2023/07/12 23:02:13;;;;;;;95.85;89.05;;;;;;;19.96;79.95;99836.68;1843862;77;25335;-63
2023/07/12 23:04:39;;;;;;;100.62;93.35;;;;;;;19.95;79.58;99848.84;1843708;77;27471;-63
2023/07/12 23:07:06;;;;;;;96.50;89.80;;;;;;;19.93;79.82;99857.25;1850721;77;25742;-63
2023/07/12 23:09:32;;;;;;;98.60;91.72;;;;;;;19.90;79.79;99862.13;1852695;77;25575;-63
2023/07/12 23:12:07;;;;;;;98.58;91.72;;;;;;;19.87;80.04;99857.40;1821456;77;25602;-63
2023/07/12 23:14:26;;;;;;;99.72;92.57;;;;;;;19.85;80.30;99859.74;1850984;77;25350;-63